sensor_id;sensor_type;location;lat;lon;timestamp;temperature;humidity
7014;DHT22;3547;50.774;12.918;2023-06-10T00:02:12;14.20;1.00
7014;DHT22;3547;50.774;12.918;2023-06-10T00:04:42;14.20;1.00
7014;DHT22;3547;50.774;12.918;2023-06-10T00:07:09;14.20;1.00
7014;DHT22;3547;50.774;12.918;2023-06-10T00:09:38;14.10;1.00
7014;DHT22;3547;50.774;12.918;2023-06-10T00:12:05;14.00;1.00
7014;DHT22;3547;50.774;12.918;2023-06-10T00:14:39;14.10;1.00
7014;DHT22;3547;50.774;12.918;2023-06-10T00:17:07;14.10;1.00
7014;DHT22;3547;50.774;12.918;2023-06-10T00:19:37;14.00;1.00
7014;DHT22;3547;50.774;12.918;2023-06-10T00:22:04;13.80;1.00
7014;DHT22;3547;50.774;12.918;2023-06-10T00:24:30;13.80;1.00
7014;DHT22;3547;50.774;12.918;2023-06-10T00:26:56;13.80;1.00
7014;DHT22;3547;50.774;12.918;2023-06-10T00:29:23;13.80;1.00
7014;DHT22;3547;50.774;12.918;2023-06-10T00:31:54;13.80;1.00
7014;DHT22;3547;50.774;12.918;2023-06-10T00:34:26;13.80;1.00
7014;DHT22;3547;50.774;12.918;2023-06-10T00:36:52;13.80;1.00
7014;DHT22;3547;50.774;12.918;2023-06-10T00:39:18;13.70;1.00
7014;DHT22;3547;50.774;12.918;2023-06-10T00:41:45;13.60;1.00
7014;DHT22;3547;50.774;12.918;2023-06-10T00:44:11;13.60;1.00
7014;DHT22;3547;50.774;12.918;2023-06-10T00:46:37;13.50;1.00
7014;DHT22;3547;50.774;12.918;2023-06-10T00:49:04;13.50;1.00
7014;DHT22;3547;50.774;12.918;2023-06-10T00:51:30;13.50;1.00
7014;DHT22;3547;50.774;12.918;2023-06-10T00:54:09;13.50;1.00
7014;DHT22;3547;50.774;12.918;2023-06-10T00:56:40;13.60;1.00
7014;DHT22;3547;50.774;12.918;2023-06-10T00:59:09;13.60;1.00
7014;DHT22;3547;50.774;12.918;2023-06-10T01:01:35;13.60;1.00
7014;DHT22;3547;50.774;12.918;2023-06-10T01:04:03;13.60;1.00
7014;DHT22;3547;50.774;12.918;2023-06-10T01:09:30;13.60;1.00
7014;DHT22;3547;50.774;12.918;2023-06-10T01:12:14;13.50;1.00
7014;DHT22;3547;50.774;12.918;2023-06-10T01:14:43;13.50;1.00
7014;DHT22;3547;50.774;12.918;2023-06-10T01:17:10;13.50;1.00
7014;DHT22;3547;50.774;12.918;2023-06-10T01:19:37;13.50;1.00
7014;DHT22;3547;50.774;12.918;2023-06-10T01:22:03;13.60;1.00
7014;DHT22;3547;50.774;12.918;2023-06-10T01:24:31;13.60;1.00
7014;DHT22;3547;50.774;12.918;2023-06-10T01:27:01;13.50;1.00
7014;DHT22;3547;50.774;12.918;2023-06-10T01:29:45;13.50;1.00
7014;DHT22;3547;50.774;12.918;2023-06-10T01:32:21;13.60;1.00
7014;DHT22;3547;50.774;12.918;2023-06-10T01:38:12;13.60;1.00
7014;DHT22;3547;50.774;12.918;2023-06-10T01:40:41;13.50;1.00
7014;DHT22;3547;50.774;12.918;2023-06-10T01:43:07;13.40;1.00
7014;DHT22;3547;50.774;12.918;2023-06-10T01:45:33;13.20;1.00
7014;DHT22;3547;50.774;12.918;2023-06-10T01:48:00;13.20;1.00
7014;DHT22;3547;50.774;12.918;2023-06-10T01:50:26;13.20;1.00
7014;DHT22;3547;50.774;12.918;2023-06-10T01:52:52;13.20;1.00
7014;DHT22;3547;50.774;12.918;2023-06-10T01:55:18;13.20;1.00
7014;DHT22;3547;50.774;12.918;2023-06-10T01:57:44;13.30;1.00
7014;DHT22;3547;50.774;12.918;2023-06-10T02:00:11;13.20;1.00
7014;DHT22;3547;50.774;12.918;2023-06-10T02:02:37;13.20;1.00
7014;DHT22;3547;50.774;12.918;2023-06-10T02:05:03;13.30;1.00
7014;DHT22;3547;50.774;12.918;2023-06-10T02:07:31;13.20;1.00
7014;DHT22;3547;50.774;12.918;2023-06-10T02:09:57;13.20;1.00
7014;DHT22;3547;50.774;12.918;2023-06-10T02:12:23;13.20;1.00
7014;DHT22;3547;50.774;12.918;2023-06-10T02:14:49;13.10;1.00
7014;DHT22;3547;50.774;12.918;2023-06-10T02:17:16;13.10;1.00
7014;DHT22;3547;50.774;12.918;2023-06-10T02:19:42;13.00;1.00
7014;DHT22;3547;50.774;12.918;2023-06-10T02:22:09;13.10;1.00
7014;DHT22;3547;50.774;12.918;2023-06-10T02:24:36;13.10;1.00
7014;DHT22;3547;50.774;12.918;2023-06-10T02:27:04;13.10;1.00
7014;DHT22;3547;50.774;12.918;2023-06-10T02:29:34;13.10;1.00
7014;DHT22;3547;50.774;12.918;2023-06-10T02:32:02;13.00;1.00
7014;DHT22;3547;50.774;12.918;2023-06-10T02:34:28;12.90;1.00
7014;DHT22;3547;50.774;12.918;2023-06-10T02:36:54;13.00;1.00
7014;DHT22;3547;50.774;12.918;2023-06-10T02:39:21;13.00;1.00
7014;DHT22;3547;50.774;12.918;2023-06-10T02:41:48;13.00;1.00
7014;DHT22;3547;50.774;12.918;2023-06-10T02:44:14;13.00;1.00
7014;DHT22;3547;50.774;12.918;2023-06-10T02:46:40;13.00;1.00
7014;DHT22;3547;50.774;12.918;2023-06-10T02:49:06;13.00;1.00
7014;DHT22;3547;50.774;12.918;2023-06-10T02:51:32;12.90;1.00
7014;DHT22;3547;50.774;12.918;2023-06-10T02:53:58;12.90;1.00
7014;DHT22;3547;50.774;12.918;2023-06-10T02:56:24;13.00;1.00
7014;DHT22;3547;50.774;12.918;2023-06-10T02:58:51;13.10;1.00
7014;DHT22;3547;50.774;12.918;2023-06-10T03:01:17;13.10;1.00
7014;DHT22;3547;50.774;12.918;2023-06-10T03:03:45;13.10;1.00
7014;DHT22;3547;50.774;12.918;2023-06-10T03:06:13;13.00;1.00
7014;DHT22;3547;50.774;12.918;2023-06-10T03:08:40;13.10;1.00
7014;DHT22;3547;50.774;12.918;2023-06-10T03:11:06;13.10;1.00
7014;DHT22;3547;50.774;12.918;2023-06-10T03:13:32;13.20;1.00
7014;DHT22;3547;50.774;12.918;2023-06-10T03:15:58;13.30;1.00
7014;DHT22;3547;50.774;12.918;2023-06-10T03:18:27;13.20;1.00
7014;DHT22;3547;50.774;12.918;2023-06-10T03:20:54;13.20;1.00
7014;DHT22;3547;50.774;12.918;2023-06-10T03:23:21;13.20;1.00
7014;DHT22;3547;50.774;12.918;2023-06-10T03:25:47;13.20;1.00
7014;DHT22;3547;50.774;12.918;2023-06-10T03:28:13;13.30;1.00
7014;DHT22;3547;50.774;12.918;2023-06-10T03:30:39;13.40;1.00
7014;DHT22;3547;50.774;12.918;2023-06-10T03:33:06;13.40;1.00
7014;DHT22;3547;50.774;12.918;2023-06-10T03:35:32;13.50;1.00
7014;DHT22;3547;50.774;12.918;2023-06-10T03:37:58;13.50;1.00
7014;DHT22;3547;50.774;12.918;2023-06-10T03:40:24;13.60;1.00
7014;DHT22;3547;50.774;12.918;2023-06-10T03:42:50;13.60;1.00
7014;DHT22;3547;50.774;12.918;2023-06-10T03:45:17;13.60;1.00
7014;DHT22;3547;50.774;12.918;2023-06-10T03:47:43;13.70;1.00
7014;DHT22;3547;50.774;12.918;2023-06-10T03:50:10;13.70;1.00
7014;DHT22;3547;50.774;12.918;2023-06-10T03:52:37;13.70;1.00
7014;DHT22;3547;50.774;12.918;2023-06-10T03:55:04;13.70;1.00
7014;DHT22;3547;50.774;12.918;2023-06-10T03:57:30;13.70;1.00
7014;DHT22;3547;50.774;12.918;2023-06-10T03:59:57;13.70;1.00
7014;DHT22;3547;50.774;12.918;2023-06-10T04:02:23;13.80;1.00
7014;DHT22;3547;50.774;12.918;2023-06-10T04:04:49;13.80;1.00
7014;DHT22;3547;50.774;12.918;2023-06-10T04:07:17;13.80;1.00
7014;DHT22;3547;50.774;12.918;2023-06-10T04:09:46;13.80;1.00
7014;DHT22;3547;50.774;12.918;2023-06-10T04:12:12;13.80;1.00
7014;DHT22;3547;50.774;12.918;2023-06-10T04:14:39;13.80;1.00
7014;DHT22;3547;50.774;12.918;2023-06-10T04:17:05;13.80;1.00
7014;DHT22;3547;50.774;12.918;2023-06-10T04:19:34;13.90;1.00
7014;DHT22;3547;50.774;12.918;2023-06-10T04:22:01;13.80;1.00
7014;DHT22;3547;50.774;12.918;2023-06-10T04:24:28;13.90;1.00
7014;DHT22;3547;50.774;12.918;2023-06-10T04:26:54;13.90;1.00
7014;DHT22;3547;50.774;12.918;2023-06-10T04:29:20;14.00;1.00
7014;DHT22;3547;50.774;12.918;2023-06-10T04:31:46;14.00;1.00
7014;DHT22;3547;50.774;12.918;2023-06-10T04:34:13;14.00;1.00
7014;DHT22;3547;50.774;12.918;2023-06-10T04:36:39;14.00;1.00
7014;DHT22;3547;50.774;12.918;2023-06-10T04:39:05;14.10;1.00
7014;DHT22;3547;50.774;12.918;2023-06-10T04:41:31;14.10;1.00
7014;DHT22;3547;50.774;12.918;2023-06-10T04:43:57;14.10;1.00
7014;DHT22;3547;50.774;12.918;2023-06-10T04:46:24;14.20;1.00
7014;DHT22;3547;50.774;12.918;2023-06-10T04:48:50;14.20;1.00
7014;DHT22;3547;50.774;12.918;2023-06-10T04:51:16;14.30;1.00
7014;DHT22;3547;50.774;12.918;2023-06-10T04:53:43;14.30;1.00
7014;DHT22;3547;50.774;12.918;2023-06-10T04:56:09;14.40;1.00
7014;DHT22;3547;50.774;12.918;2023-06-10T04:58:36;14.50;1.00
7014;DHT22;3547;50.774;12.918;2023-06-10T05:01:02;14.50;1.00
7014;DHT22;3547;50.774;12.918;2023-06-10T05:03:28;14.60;1.00
7014;DHT22;3547;50.774;12.918;2023-06-10T05:05:54;14.60;1.00
7014;DHT22;3547;50.774;12.918;2023-06-10T05:08:21;14.70;1.00
7014;DHT22;3547;50.774;12.918;2023-06-10T05:10:47;14.80;1.00
7014;DHT22;3547;50.774;12.918;2023-06-10T05:13:13;14.80;1.00
7014;DHT22;3547;50.774;12.918;2023-06-10T05:15:39;14.90;1.00
7014;DHT22;3547;50.774;12.918;2023-06-10T05:18:10;15.00;1.00
7014;DHT22;3547;50.774;12.918;2023-06-10T05:20:38;15.10;1.00
7014;DHT22;3547;50.774;12.918;2023-06-10T05:23:19;15.10;1.00
7014;DHT22;3547;50.774;12.918;2023-06-10T05:25:46;15.20;1.00
7014;DHT22;3547;50.774;12.918;2023-06-10T05:28:12;15.30;1.00
7014;DHT22;3547;50.774;12.918;2023-06-10T05:30:38;15.40;1.00
7014;DHT22;3547;50.774;12.918;2023-06-10T05:33:04;15.50;1.00
7014;DHT22;3547;50.774;12.918;2023-06-10T05:35:31;15.60;1.00
7014;DHT22;3547;50.774;12.918;2023-06-10T05:37:57;15.70;1.00
7014;DHT22;3547;50.774;12.918;2023-06-10T05:40:23;15.80;1.00
7014;DHT22;3547;50.774;12.918;2023-06-10T05:42:49;15.90;1.00
7014;DHT22;3547;50.774;12.918;2023-06-10T05:45:16;15.90;1.00
7014;DHT22;3547;50.774;12.918;2023-06-10T05:47:45;16.00;1.00
7014;DHT22;3547;50.774;12.918;2023-06-10T05:50:12;16.10;1.00
7014;DHT22;3547;50.774;12.918;2023-06-10T05:52:38;16.20;1.00
7014;DHT22;3547;50.774;12.918;2023-06-10T05:55:16;16.30;1.00
7014;DHT22;3547;50.774;12.918;2023-06-10T05:57:58;16.40;1.00
7014;DHT22;3547;50.774;12.918;2023-06-10T06:00:27;16.50;1.00
7014;DHT22;3547;50.774;12.918;2023-06-10T06:02:53;16.60;1.00
7014;DHT22;3547;50.774;12.918;2023-06-10T06:05:20;16.60;1.00
7014;DHT22;3547;50.774;12.918;2023-06-10T06:11:08;16.90;1.00
7014;DHT22;3547;50.774;12.918;2023-06-10T06:13:35;17.00;1.00
7014;DHT22;3547;50.774;12.918;2023-06-10T06:16:01;17.10;1.00
7014;DHT22;3547;50.774;12.918;2023-06-10T06:18:27;17.30;1.00
7014;DHT22;3547;50.774;12.918;2023-06-10T06:20:53;17.40;1.00
7014;DHT22;3547;50.774;12.918;2023-06-10T06:23:19;17.50;1.00
7014;DHT22;3547;50.774;12.918;2023-06-10T06:25:45;17.60;1.00
7014;DHT22;3547;50.774;12.918;2023-06-10T06:28:11;17.70;1.00
7014;DHT22;3547;50.774;12.918;2023-06-10T06:30:38;17.70;1.00
7014;DHT22;3547;50.774;12.918;2023-06-10T06:33:04;17.80;1.00
7014;DHT22;3547;50.774;12.918;2023-06-10T06:35:32;17.90;1.00
7014;DHT22;3547;50.774;12.918;2023-06-10T06:37:58;18.00;1.00
7014;DHT22;3547;50.774;12.918;2023-06-10T06:40:25;18.10;1.00
7014;DHT22;3547;50.774;12.918;2023-06-10T06:42:54;18.20;1.00
7014;DHT22;3547;50.774;12.918;2023-06-10T06:45:20;18.40;1.00
7014;DHT22;3547;50.774;12.918;2023-06-10T06:47:46;18.40;1.00
7014;DHT22;3547;50.774;12.918;2023-06-10T06:50:13;18.50;1.00
7014;DHT22;3547;50.774;12.918;2023-06-10T06:52:42;18.60;1.00
7014;DHT22;3547;50.774;12.918;2023-06-10T06:55:08;18.70;1.00
7014;DHT22;3547;50.774;12.918;2023-06-10T06:57:35;18.80;1.00
7014;DHT22;3547;50.774;12.918;2023-06-10T07:00:03;18.80;1.00
7014;DHT22;3547;50.774;12.918;2023-06-10T07:02:29;18.90;1.00
7014;DHT22;3547;50.774;12.918;2023-06-10T07:04:55;19.00;1.00
7014;DHT22;3547;50.774;12.918;2023-06-10T07:07:22;19.00;1.00
7014;DHT22;3547;50.774;12.918;2023-06-10T07:09:48;19.10;1.00
7014;DHT22;3547;50.774;12.918;2023-06-10T07:12:14;19.20;1.00
7014;DHT22;3547;50.774;12.918;2023-06-10T07:14:40;19.30;1.00
7014;DHT22;3547;50.774;12.918;2023-06-10T07:17:07;19.30;1.00
7014;DHT22;3547;50.774;12.918;2023-06-10T07:19:33;19.40;1.00
7014;DHT22;3547;50.774;12.918;2023-06-10T07:21:59;19.50;1.00
7014;DHT22;3547;50.774;12.918;2023-06-10T07:24:25;19.50;1.00
7014;DHT22;3547;50.774;12.918;2023-06-10T07:26:52;19.60;1.00
7014;DHT22;3547;50.774;12.918;2023-06-10T07:29:18;19.60;1.00
7014;DHT22;3547;50.774;12.918;2023-06-10T07:31:44;19.70;1.00
7014;DHT22;3547;50.774;12.918;2023-06-10T07:34:13;19.80;1.00
7014;DHT22;3547;50.774;12.918;2023-06-10T07:36:40;19.90;1.00
7014;DHT22;3547;50.774;12.918;2023-06-10T07:39:06;20.00;1.00
7014;DHT22;3547;50.774;12.918;2023-06-10T07:41:36;20.10;1.00
7014;DHT22;3547;50.774;12.918;2023-06-10T07:44:02;20.20;1.00
7014;DHT22;3547;50.774;12.918;2023-06-10T07:46:28;20.30;1.00
7014;DHT22;3547;50.774;12.918;2023-06-10T07:48:55;20.40;1.00
7014;DHT22;3547;50.774;12.918;2023-06-10T07:51:21;20.50;1.00
7014;DHT22;3547;50.774;12.918;2023-06-10T07:53:47;20.50;1.00
7014;DHT22;3547;50.774;12.918;2023-06-10T07:56:13;20.60;1.00
7014;DHT22;3547;50.774;12.918;2023-06-10T07:58:40;20.60;1.00
7014;DHT22;3547;50.774;12.918;2023-06-10T08:01:06;20.50;1.00
7014;DHT22;3547;50.774;12.918;2023-06-10T08:03:34;20.50;1.00
7014;DHT22;3547;50.774;12.918;2023-06-10T08:06:02;20.70;1.00
7014;DHT22;3547;50.774;12.918;2023-06-10T08:08:32;20.90;1.00
7014;DHT22;3547;50.774;12.918;2023-06-10T08:11:05;20.90;1.00
7014;DHT22;3547;50.774;12.918;2023-06-10T08:13:32;20.90;1.00
7014;DHT22;3547;50.774;12.918;2023-06-10T08:15:58;21.00;1.00
7014;DHT22;3547;50.774;12.918;2023-06-10T08:18:24;21.20;1.00
7014;DHT22;3547;50.774;12.918;2023-06-10T08:20:50;21.20;1.00
7014;DHT22;3547;50.774;12.918;2023-06-10T08:23:20;21.30;1.00
7014;DHT22;3547;50.774;12.918;2023-06-10T08:25:49;21.40;1.00
7014;DHT22;3547;50.774;12.918;2023-06-10T08:28:15;21.50;1.00
7014;DHT22;3547;50.774;12.918;2023-06-10T08:30:48;21.80;1.00
7014;DHT22;3547;50.774;12.918;2023-06-10T08:33:14;22.00;1.00
7014;DHT22;3547;50.774;12.918;2023-06-10T08:35:41;22.20;1.00
7014;DHT22;3547;50.774;12.918;2023-06-10T08:38:07;22.30;1.00
7014;DHT22;3547;50.774;12.918;2023-06-10T08:40:33;22.50;1.00
7014;DHT22;3547;50.774;12.918;2023-06-10T08:45:30;22.50;1.00
7014;DHT22;3547;50.774;12.918;2023-06-10T08:48:03;22.70;1.00
7014;DHT22;3547;50.774;12.918;2023-06-10T08:50:36;22.70;1.00
7014;DHT22;3547;50.774;12.918;2023-06-10T08:53:07;22.80;1.00
7014;DHT22;3547;50.774;12.918;2023-06-10T08:55:37;22.90;1.00
7014;DHT22;3547;50.774;12.918;2023-06-10T08:58:04;23.00;1.00
7014;DHT22;3547;50.774;12.918;2023-06-10T09:00:31;23.10;1.00
7014;DHT22;3547;50.774;12.918;2023-06-10T09:02:59;23.10;1.00
7014;DHT22;3547;50.774;12.918;2023-06-10T09:05:27;23.20;1.00
7014;DHT22;3547;50.774;12.918;2023-06-10T09:07:57;23.10;1.00
7014;DHT22;3547;50.774;12.918;2023-06-10T09:10:23;23.10;1.00
7014;DHT22;3547;50.774;12.918;2023-06-10T09:12:52;23.10;1.00
7014;DHT22;3547;50.774;12.918;2023-06-10T09:15:18;23.10;1.00
7014;DHT22;3547;50.774;12.918;2023-06-10T09:17:45;23.10;1.00
7014;DHT22;3547;50.774;12.918;2023-06-10T09:20:11;23.20;1.00
7014;DHT22;3547;50.774;12.918;2023-06-10T09:22:38;23.30;1.00
7014;DHT22;3547;50.774;12.918;2023-06-10T09:25:15;23.40;1.00
7014;DHT22;3547;50.774;12.918;2023-06-10T09:31:14;23.50;1.00
7014;DHT22;3547;50.774;12.918;2023-06-10T09:33:46;23.70;1.00
7014;DHT22;3547;50.774;12.918;2023-06-10T09:36:45;23.80;1.00
7014;DHT22;3547;50.774;12.918;2023-06-10T09:43:07;23.90;1.00
7014;DHT22;3547;50.774;12.918;2023-06-10T09:45:58;23.90;1.00
7014;DHT22;3547;50.774;12.918;2023-06-10T09:48:40;23.80;1.00
7014;DHT22;3547;50.774;12.918;2023-06-10T09:51:09;23.80;1.00
7014;DHT22;3547;50.774;12.918;2023-06-10T09:53:42;23.80;1.00
7014;DHT22;3547;50.774;12.918;2023-06-10T09:56:08;23.90;1.00
7014;DHT22;3547;50.774;12.918;2023-06-10T09:58:36;23.80;1.00
7014;DHT22;3547;50.774;12.918;2023-06-10T10:01:13;23.80;1.00
7014;DHT22;3547;50.774;12.918;2023-06-10T10:04:09;23.70;1.00
7014;DHT22;3547;50.774;12.918;2023-06-10T10:07:03;23.60;1.00
7014;DHT22;3547;50.774;12.918;2023-06-10T10:09:29;23.60;1.00
7014;DHT22;3547;50.774;12.918;2023-06-10T10:11:55;23.60;1.00
7014;DHT22;3547;50.774;12.918;2023-06-10T10:14:23;23.60;1.00
7014;DHT22;3547;50.774;12.918;2023-06-10T10:16:52;23.60;1.00
7014;DHT22;3547;50.774;12.918;2023-06-10T10:19:25;23.70;1.00
7014;DHT22;3547;50.774;12.918;2023-06-10T10:22:25;23.70;1.00
7014;DHT22;3547;50.774;12.918;2023-06-10T10:24:56;23.60;1.00
7014;DHT22;3547;50.774;12.918;2023-06-10T10:27:33;23.50;1.00
7014;DHT22;3547;50.774;12.918;2023-06-10T10:30:03;23.50;1.00
7014;DHT22;3547;50.774;12.918;2023-06-10T10:42:06;24.20;1.00
7014;DHT22;3547;50.774;12.918;2023-06-10T10:44:40;24.40;1.00
7014;DHT22;3547;50.774;12.918;2023-06-10T10:47:14;24.40;1.00
7014;DHT22;3547;50.774;12.918;2023-06-10T10:53:21;24.40;1.00
7014;DHT22;3547;50.774;12.918;2023-06-10T10:56:08;24.50;1.00
7014;DHT22;3547;50.774;12.918;2023-06-10T10:58:35;24.70;1.00
7014;DHT22;3547;50.774;12.918;2023-06-10T11:01:14;25.10;1.00
7014;DHT22;3547;50.774;12.918;2023-06-10T11:03:50;25.20;1.00
7014;DHT22;3547;50.774;12.918;2023-06-10T11:06:18;25.30;1.00
7014;DHT22;3547;50.774;12.918;2023-06-10T11:09:30;25.30;1.00
7014;DHT22;3547;50.774;12.918;2023-06-10T11:12:05;25.30;1.00
7014;DHT22;3547;50.774;12.918;2023-06-10T11:14:36;25.60;1.00
7014;DHT22;3547;50.774;12.918;2023-06-10T11:17:23;26.20;1.00
7014;DHT22;3547;50.774;12.918;2023-06-10T11:19:52;26.90;1.00
7014;DHT22;3547;50.774;12.918;2023-06-10T11:22:18;27.50;1.00
7014;DHT22;3547;50.774;12.918;2023-06-10T11:24:51;27.80;1.00
7014;DHT22;3547;50.774;12.918;2023-06-10T11:27:42;27.60;1.00
7014;DHT22;3547;50.774;12.918;2023-06-10T11:30:25;27.80;1.00
7014;DHT22;3547;50.774;12.918;2023-06-10T11:32:52;28.20;1.00
7014;DHT22;3547;50.774;12.918;2023-06-10T11:38:42;28.30;1.00
7014;DHT22;3547;50.774;12.918;2023-06-10T11:41:09;28.40;1.00
7014;DHT22;3547;50.774;12.918;2023-06-10T11:43:45;28.10;1.00
7014;DHT22;3547;50.774;12.918;2023-06-10T11:46:14;27.90;1.00
7014;DHT22;3547;50.774;12.918;2023-06-10T11:48:59;27.80;1.00
7014;DHT22;3547;50.774;12.918;2023-06-10T11:51:33;27.70;1.00
7014;DHT22;3547;50.774;12.918;2023-06-10T11:54:00;27.60;1.00
7014;DHT22;3547;50.774;12.918;2023-06-10T11:56:28;27.80;1.00
7014;DHT22;3547;50.774;12.918;2023-06-10T11:59:01;27.60;1.00
7014;DHT22;3547;50.774;12.918;2023-06-10T12:01:37;27.40;1.00
7014;DHT22;3547;50.774;12.918;2023-06-10T12:04:08;28.10;1.00
7014;DHT22;3547;50.774;12.918;2023-06-10T12:06:39;28.10;1.00
7014;DHT22;3547;50.774;12.918;2023-06-10T12:12:04;27.50;1.00
7014;DHT22;3547;50.774;12.918;2023-06-10T12:14:54;27.20;1.00
7014;DHT22;3547;50.774;12.918;2023-06-10T12:17:23;28.10;1.00
7014;DHT22;3547;50.774;12.918;2023-06-10T12:19:54;28.70;1.00
7014;DHT22;3547;50.774;12.918;2023-06-10T12:22:20;29.00;1.00
7014;DHT22;3547;50.774;12.918;2023-06-10T12:25:02;29.20;1.00
7014;DHT22;3547;50.774;12.918;2023-06-10T12:27:33;29.40;1.00
7014;DHT22;3547;50.774;12.918;2023-06-10T12:30:01;29.60;1.00
7014;DHT22;3547;50.774;12.918;2023-06-10T12:32:39;29.50;1.00
7014;DHT22;3547;50.774;12.918;2023-06-10T12:35:06;29.70;1.00
7014;DHT22;3547;50.774;12.918;2023-06-10T12:37:33;29.90;1.00
7014;DHT22;3547;50.774;12.918;2023-06-10T12:40:03;30.10;1.00
7014;DHT22;3547;50.774;12.918;2023-06-10T12:42:32;30.30;1.00
7014;DHT22;3547;50.774;12.918;2023-06-10T12:45:02;30.20;1.00
7014;DHT22;3547;50.774;12.918;2023-06-10T12:47:34;30.30;1.00
7014;DHT22;3547;50.774;12.918;2023-06-10T12:50:01;30.40;1.00
7014;DHT22;3547;50.774;12.918;2023-06-10T12:52:28;30.70;1.00
7014;DHT22;3547;50.774;12.918;2023-06-10T12:55:00;30.90;1.00
7014;DHT22;3547;50.774;12.918;2023-06-10T12:57:27;31.10;1.00
7014;DHT22;3547;50.774;12.918;2023-06-10T12:59:53;31.20;1.00
7014;DHT22;3547;50.774;12.918;2023-06-10T13:02:20;30.80;1.00
7014;DHT22;3547;50.774;12.918;2023-06-10T13:04:47;30.40;1.00
7014;DHT22;3547;50.774;12.918;2023-06-10T13:07:13;30.60;1.00
7014;DHT22;3547;50.774;12.918;2023-06-10T13:09:40;30.40;1.00
7014;DHT22;3547;50.774;12.918;2023-06-10T13:12:07;30.40;1.00
7014;DHT22;3547;50.774;12.918;2023-06-10T13:14:34;30.10;1.00
7014;DHT22;3547;50.774;12.918;2023-06-10T13:17:00;30.80;1.00
7014;DHT22;3547;50.774;12.918;2023-06-10T13:19:26;31.20;1.00
7014;DHT22;3547;50.774;12.918;2023-06-10T13:21:54;31.40;1.00
7014;DHT22;3547;50.774;12.918;2023-06-10T13:24:20;31.50;1.00
7014;DHT22;3547;50.774;12.918;2023-06-10T13:26:54;30.90;1.00
7014;DHT22;3547;50.774;12.918;2023-06-10T13:29:25;30.50;1.00
7014;DHT22;3547;50.774;12.918;2023-06-10T13:31:51;30.20;1.00
7014;DHT22;3547;50.774;12.918;2023-06-10T13:34:18;30.40;1.00
7014;DHT22;3547;50.774;12.918;2023-06-10T13:36:44;30.40;1.00
7014;DHT22;3547;50.774;12.918;2023-06-10T13:39:10;30.90;1.00
7014;DHT22;3547;50.774;12.918;2023-06-10T13:41:43;30.80;1.00
7014;DHT22;3547;50.774;12.918;2023-06-10T13:44:09;30.60;1.00
7014;DHT22;3547;50.774;12.918;2023-06-10T13:46:36;30.10;1.00
7014;DHT22;3547;50.774;12.918;2023-06-10T13:49:05;29.50;1.00
7014;DHT22;3547;50.774;12.918;2023-06-10T13:51:32;29.70;1.00
7014;DHT22;3547;50.774;12.918;2023-06-10T13:53:58;30.80;1.00
7014;DHT22;3547;50.774;12.918;2023-06-10T13:56:25;31.40;1.00
7014;DHT22;3547;50.774;12.918;2023-06-10T13:58:54;32.10;1.00
7014;DHT22;3547;50.774;12.918;2023-06-10T14:01:22;32.40;1.00
7014;DHT22;3547;50.774;12.918;2023-06-10T14:03:49;32.90;1.00
7014;DHT22;3547;50.774;12.918;2023-06-10T14:06:16;33.20;1.00
7014;DHT22;3547;50.774;12.918;2023-06-10T14:08:45;33.40;1.00
7014;DHT22;3547;50.774;12.918;2023-06-10T14:11:11;33.70;1.00
7014;DHT22;3547;50.774;12.918;2023-06-10T14:13:38;34.00;1.00
7014;DHT22;3547;50.774;12.918;2023-06-10T14:16:04;34.40;1.00
7014;DHT22;3547;50.774;12.918;2023-06-10T14:18:31;34.70;1.00
7014;DHT22;3547;50.774;12.918;2023-06-10T14:20:57;34.20;1.00
7014;DHT22;3547;50.774;12.918;2023-06-10T14:23:23;33.40;1.00
7014;DHT22;3547;50.774;12.918;2023-06-10T14:25:56;32.90;1.00
7014;DHT22;3547;50.774;12.918;2023-06-10T14:28:22;32.40;1.00
7014;DHT22;3547;50.774;12.918;2023-06-10T14:30:50;32.10;1.00
7014;DHT22;3547;50.774;12.918;2023-06-10T14:33:19;31.30;1.00
7014;DHT22;3547;50.774;12.918;2023-06-10T14:35:45;31.60;1.00
7014;DHT22;3547;50.774;12.918;2023-06-10T14:38:11;31.60;1.00
7014;DHT22;3547;50.774;12.918;2023-06-10T14:40:38;32.70;1.00
7014;DHT22;3547;50.774;12.918;2023-06-10T14:43:04;33.40;1.00
7014;DHT22;3547;50.774;12.918;2023-06-10T14:45:42;34.10;1.00
7014;DHT22;3547;50.774;12.918;2023-06-10T14:48:08;34.80;1.00
7014;DHT22;3547;50.774;12.918;2023-06-10T14:50:40;35.10;1.00
7014;DHT22;3547;50.774;12.918;2023-06-10T14:53:13;35.50;1.00
7014;DHT22;3547;50.774;12.918;2023-06-10T14:55:55;35.80;1.00
7014;DHT22;3547;50.774;12.918;2023-06-10T14:58:38;36.30;1.00
7014;DHT22;3547;50.774;12.918;2023-06-10T15:01:11;36.40;1.00
7014;DHT22;3547;50.774;12.918;2023-06-10T15:03:41;36.70;1.00
7014;DHT22;3547;50.774;12.918;2023-06-10T15:06:12;37.10;1.00
7014;DHT22;3547;50.774;12.918;2023-06-10T15:08:39;37.50;1.00
7014;DHT22;3547;50.774;12.918;2023-06-10T15:11:05;37.50;1.00
7014;DHT22;3547;50.774;12.918;2023-06-10T15:13:32;37.70;1.00
7014;DHT22;3547;50.774;12.918;2023-06-10T15:15:58;38.20;1.00
7014;DHT22;3547;50.774;12.918;2023-06-10T15:18:24;38.40;1.00
7014;DHT22;3547;50.774;12.918;2023-06-10T15:20:50;38.50;1.00
7014;DHT22;3547;50.774;12.918;2023-06-10T15:23:17;38.70;1.00
7014;DHT22;3547;50.774;12.918;2023-06-10T15:25:43;38.70;1.00
7014;DHT22;3547;50.774;12.918;2023-06-10T15:28:10;39.10;1.00
7014;DHT22;3547;50.774;12.918;2023-06-10T15:30:36;39.10;1.00
7014;DHT22;3547;50.774;12.918;2023-06-10T15:33:03;39.40;1.00
7014;DHT22;3547;50.774;12.918;2023-06-10T15:35:29;39.90;1.00
7014;DHT22;3547;50.774;12.918;2023-06-10T15:37:57;39.90;1.00
7014;DHT22;3547;50.774;12.918;2023-06-10T15:40:23;39.70;1.00
7014;DHT22;3547;50.774;12.918;2023-06-10T15:42:50;40.20;1.00
7014;DHT22;3547;50.774;12.918;2023-06-10T15:45:17;40.40;1.00
7014;DHT22;3547;50.774;12.918;2023-06-10T15:47:46;40.30;1.00
7014;DHT22;3547;50.774;12.918;2023-06-10T15:50:15;40.60;1.00
7014;DHT22;3547;50.774;12.918;2023-06-10T15:52:41;40.50;1.00
7014;DHT22;3547;50.774;12.918;2023-06-10T15:55:08;40.60;1.00
7014;DHT22;3547;50.774;12.918;2023-06-10T15:57:34;40.90;1.00
7014;DHT22;3547;50.774;12.918;2023-06-10T16:00:00;40.90;1.00
7014;DHT22;3547;50.774;12.918;2023-06-10T16:02:27;41.10;1.00
7014;DHT22;3547;50.774;12.918;2023-06-10T16:04:54;41.00;1.00
7014;DHT22;3547;50.774;12.918;2023-06-10T16:07:20;41.40;99.90
7014;DHT22;3547;50.774;12.918;2023-06-10T16:09:46;41.20;1.00
7014;DHT22;3547;50.774;12.918;2023-06-10T16:12:13;41.80;1.00
7014;DHT22;3547;50.774;12.918;2023-06-10T16:14:39;41.70;99.90
7014;DHT22;3547;50.774;12.918;2023-06-10T16:17:05;41.80;99.90
7014;DHT22;3547;50.774;12.918;2023-06-10T16:19:31;41.70;99.90
7014;DHT22;3547;50.774;12.918;2023-06-10T16:21:57;42.00;99.90
7014;DHT22;3547;50.774;12.918;2023-06-10T16:24:24;42.20;99.90
7014;DHT22;3547;50.774;12.918;2023-06-10T16:26:50;42.40;99.90
7014;DHT22;3547;50.774;12.918;2023-06-10T16:29:16;42.60;99.90
7014;DHT22;3547;50.774;12.918;2023-06-10T16:31:42;42.60;99.90
7014;DHT22;3547;50.774;12.918;2023-06-10T16:34:09;42.80;99.90
7014;DHT22;3547;50.774;12.918;2023-06-10T16:36:36;42.70;99.90
7014;DHT22;3547;50.774;12.918;2023-06-10T16:39:02;42.80;99.90
7014;DHT22;3547;50.774;12.918;2023-06-10T16:41:28;42.90;99.90
7014;DHT22;3547;50.774;12.918;2023-06-10T16:43:54;42.80;99.90
7014;DHT22;3547;50.774;12.918;2023-06-10T16:46:26;43.10;99.90
7014;DHT22;3547;50.774;12.918;2023-06-10T16:48:54;43.20;99.90
7014;DHT22;3547;50.774;12.918;2023-06-10T16:51:21;43.30;99.90